sensor_id;sensor_type;location;lat;lon;timestamp;P1;durP1;ratioP1;P2;durP2;ratioP2
908;SDS011;441;51.192;6.788;2023-02-23T00:00:50;17.70;;;16.77;;
908;SDS011;441;51.192;6.788;2023-02-23T00:03:19;19.00;;;17.80;;
908;SDS011;441;51.192;6.788;2023-02-23T00:05:45;17.43;;;16.23;;
908;SDS011;441;51.192;6.788;2023-02-23T00:08:12;18.57;;;17.27;;
908;SDS011;441;51.192;6.788;2023-02-23T00:10:39;17.43;;;16.53;;
908;SDS011;441;51.192;6.788;2023-02-23T00:13:08;19.43;;;17.53;;
908;SDS011;441;51.192;6.788;2023-02-23T00:15:35;18.10;;;16.90;;
908;SDS011;441;51.192;6.788;2023-02-23T00:18:03;17.47;;;16.20;;
908;SDS011;441;51.192;6.788;2023-02-23T00:20:31;17.23;;;16.33;;
908;SDS011;441;51.192;6.788;2023-02-23T00:22:58;19.87;;;18.30;;
908;SDS011;441;51.192;6.788;2023-02-23T00:25:25;16.23;;;15.43;;
908;SDS011;441;51.192;6.788;2023-02-23T00:27:55;16.87;;;16.00;;
908;SDS011;441;51.192;6.788;2023-02-23T00:30:22;16.53;;;15.53;;
908;SDS011;441;51.192;6.788;2023-02-23T00:32:50;17.87;;;16.53;;
908;SDS011;441;51.192;6.788;2023-02-23T00:35:17;17.30;;;16.30;;
908;SDS011;441;51.192;6.788;2023-02-23T00:37:46;17.13;;;16.03;;
908;SDS011;441;51.192;6.788;2023-02-23T00:40:14;19.07;;;17.70;;
908;SDS011;441;51.192;6.788;2023-02-23T00:42:44;17.87;;;16.57;;
908;SDS011;441;51.192;6.788;2023-02-23T00:45:13;16.50;;;15.70;;
908;SDS011;441;51.192;6.788;2023-02-23T00:47:41;15.13;;;14.43;;
908;SDS011;441;51.192;6.788;2023-02-23T00:50:10;18.23;;;17.00;;
908;SDS011;441;51.192;6.788;2023-02-23T00:52:39;16.30;;;15.50;;
908;SDS011;441;51.192;6.788;2023-02-23T00:55:09;15.93;;;15.13;;
908;SDS011;441;51.192;6.788;2023-02-23T00:57:37;16.70;;;15.70;;
908;SDS011;441;51.192;6.788;2023-02-23T01:00:05;16.47;;;15.37;;
908;SDS011;441;51.192;6.788;2023-02-23T01:02:41;17.27;;;16.10;;
908;SDS011;441;51.192;6.788;2023-02-23T01:05:08;15.90;;;15.10;;
908;SDS011;441;51.192;6.788;2023-02-23T01:07:37;15.83;;;15.13;;
908;SDS011;441;51.192;6.788;2023-02-23T01:10:04;15.70;;;15.00;;
908;SDS011;441;51.192;6.788;2023-02-23T01:12:44;16.50;;;15.50;;
908;SDS011;441;51.192;6.788;2023-02-23T01:15:12;16.87;;;16.07;;
908;SDS011;441;51.192;6.788;2023-02-23T01:17:39;16.47;;;15.63;;
908;SDS011;441;51.192;6.788;2023-02-23T01:20:07;16.07;;;15.27;;
908;SDS011;441;51.192;6.788;2023-02-23T01:22:39;16.43;;;15.63;;
908;SDS011;441;51.192;6.788;2023-02-23T01:25:07;15.47;;;14.77;;
908;SDS011;441;51.192;6.788;2023-02-23T01:27:36;16.00;;;15.17;;
908;SDS011;441;51.192;6.788;2023-02-23T01:30:05;16.10;;;15.30;;
908;SDS011;441;51.192;6.788;2023-02-23T01:32:33;15.20;;;14.50;;
908;SDS011;441;51.192;6.788;2023-02-23T01:35:01;16.70;;;15.80;;
908;SDS011;441;51.192;6.788;2023-02-23T01:37:29;16.17;;;15.37;;
908;SDS011;441;51.192;6.788;2023-02-23T01:39:57;16.03;;;15.37;;
908;SDS011;441;51.192;6.788;2023-02-23T01:42:23;16.73;;;15.87;;
908;SDS011;441;51.192;6.788;2023-02-23T01:47:52;16.00;;;15.23;;
908;SDS011;441;51.192;6.788;2023-02-23T01:50:23;16.60;;;15.70;;
908;SDS011;441;51.192;6.788;2023-02-23T01:52:52;16.20;;;15.50;;
908;SDS011;441;51.192;6.788;2023-02-23T01:55:20;16.40;;;15.63;;
908;SDS011;441;51.192;6.788;2023-02-23T01:57:53;15.90;;;15.17;;
908;SDS011;441;51.192;6.788;2023-02-23T02:00:28;16.37;;;15.47;;
908;SDS011;441;51.192;6.788;2023-02-23T02:02:57;16.93;;;16.13;;
908;SDS011;441;51.192;6.788;2023-02-23T02:05:27;17.00;;;16.07;;
908;SDS011;441;51.192;6.788;2023-02-23T02:07:54;16.00;;;15.00;;
908;SDS011;441;51.192;6.788;2023-02-23T02:10:24;16.20;;;15.43;;
908;SDS011;441;51.192;6.788;2023-02-23T02:13:15;17.43;;;16.60;;
908;SDS011;441;51.192;6.788;2023-02-23T02:18:42;15.13;;;14.43;;
908;SDS011;441;51.192;6.788;2023-02-23T02:30:59;17.23;;;16.43;;
908;SDS011;441;51.192;6.788;2023-02-23T02:33:54;16.60;;;15.70;;
908;SDS011;441;51.192;6.788;2023-02-23T02:36:42;15.13;;;14.63;;
908;SDS011;441;51.192;6.788;2023-02-23T02:39:40;16.00;;;15.40;;
908;SDS011;441;51.192;6.788;2023-02-23T02:42:18;16.00;;;15.30;;
908;SDS011;441;51.192;6.788;2023-02-23T02:44:49;15.70;;;14.97;;
908;SDS011;441;51.192;6.788;2023-02-23T02:47:23;16.40;;;15.70;;
908;SDS011;441;51.192;6.788;2023-02-23T02:49:55;16.57;;;15.87;;
908;SDS011;441;51.192;6.788;2023-02-23T02:52:32;16.03;;;15.43;;
908;SDS011;441;51.192;6.788;2023-02-23T02:55:05;15.33;;;14.73;;
908;SDS011;441;51.192;6.788;2023-02-23T02:57:40;15.83;;;15.13;;
908;SDS011;441;51.192;6.788;2023-02-23T03:00:12;15.20;;;14.60;;
908;SDS011;441;51.192;6.788;2023-02-23T03:03:00;15.07;;;14.37;;
908;SDS011;441;51.192;6.788;2023-02-23T03:05:45;15.50;;;14.83;;
908;SDS011;441;51.192;6.788;2023-02-23T03:08:36;16.37;;;15.67;;
908;SDS011;441;51.192;6.788;2023-02-23T03:11:26;15.23;;;14.70;;
908;SDS011;441;51.192;6.788;2023-02-23T03:14:20;15.50;;;14.80;;
908;SDS011;441;51.192;6.788;2023-02-23T03:17:12;14.93;;;14.37;;
908;SDS011;441;51.192;6.788;2023-02-23T03:23:11;15.80;;;15.03;;
908;SDS011;441;51.192;6.788;2023-02-23T03:26:04;17.10;;;16.30;;
908;SDS011;441;51.192;6.788;2023-02-23T03:28:54;16.40;;;15.70;;
908;SDS011;441;51.192;6.788;2023-02-23T03:31:44;14.50;;;14.00;;
908;SDS011;441;51.192;6.788;2023-02-23T03:34:34;15.60;;;14.97;;
908;SDS011;441;51.192;6.788;2023-02-23T03:37:24;15.27;;;14.60;;
908;SDS011;441;51.192;6.788;2023-02-23T03:40:12;16.57;;;15.77;;
908;SDS011;441;51.192;6.788;2023-02-23T03:43:04;17.00;;;16.20;;
908;SDS011;441;51.192;6.788;2023-02-23T03:45:53;16.00;;;15.20;;
908;SDS011;441;51.192;6.788;2023-02-23T03:48:40;17.33;;;16.50;;
908;SDS011;441;51.192;6.788;2023-02-23T03:51:29;15.67;;;15.17;;
908;SDS011;441;51.192;6.788;2023-02-23T03:54:19;15.80;;;15.10;;
908;SDS011;441;51.192;6.788;2023-02-23T03:57:09;17.00;;;16.30;;
908;SDS011;441;51.192;6.788;2023-02-23T04:00:00;16.13;;;15.33;;
908;SDS011;441;51.192;6.788;2023-02-23T04:02:48;17.20;;;16.40;;
908;SDS011;441;51.192;6.788;2023-02-23T04:05:34;16.97;;;16.17;;
908;SDS011;441;51.192;6.788;2023-02-23T04:08:20;16.50;;;15.80;;
908;SDS011;441;51.192;6.788;2023-02-23T04:11:12;16.40;;;15.70;;
908;SDS011;441;51.192;6.788;2023-02-23T04:14:03;15.67;;;15.07;;
908;SDS011;441;51.192;6.788;2023-02-23T04:16:34;16.30;;;15.60;;
908;SDS011;441;51.192;6.788;2023-02-23T04:19:01;17.50;;;16.60;;
908;SDS011;441;51.192;6.788;2023-02-23T04:21:28;16.73;;;16.03;;
908;SDS011;441;51.192;6.788;2023-02-23T04:23:55;16.07;;;15.37;;
908;SDS011;441;51.192;6.788;2023-02-23T04:26:21;16.33;;;15.73;;
908;SDS011;441;51.192;6.788;2023-02-23T04:28:48;16.57;;;15.87;;
908;SDS011;441;51.192;6.788;2023-02-23T04:31:15;17.03;;;16.33;;
908;SDS011;441;51.192;6.788;2023-02-23T04:33:43;18.20;;;17.20;;
908;SDS011;441;51.192;6.788;2023-02-23T04:36:10;17.13;;;16.27;;
908;SDS011;441;51.192;6.788;2023-02-23T04:38:37;16.40;;;15.70;;
908;SDS011;441;51.192;6.788;2023-02-23T04:41:04;16.10;;;15.50;;
908;SDS011;441;51.192;6.788;2023-02-23T04:43:31;16.70;;;15.93;;
908;SDS011;441;51.192;6.788;2023-02-23T04:45:58;16.70;;;16.00;;
908;SDS011;441;51.192;6.788;2023-02-23T04:48:25;16.50;;;15.67;;
908;SDS011;441;51.192;6.788;2023-02-23T04:50:54;15.80;;;14.90;;
908;SDS011;441;51.192;6.788;2023-02-23T04:53:20;16.30;;;15.67;;
908;SDS011;441;51.192;6.788;2023-02-23T04:55:47;15.37;;;14.67;;
908;SDS011;441;51.192;6.788;2023-02-23T04:58:14;16.27;;;15.53;;
908;SDS011;441;51.192;6.788;2023-02-23T05:00:41;16.03;;;15.23;;
908;SDS011;441;51.192;6.788;2023-02-23T05:03:08;16.40;;;15.70;;
908;SDS011;441;51.192;6.788;2023-02-23T05:05:36;15.47;;;14.87;;
908;SDS011;441;51.192;6.788;2023-02-23T05:08:05;15.53;;;14.93;;
908;SDS011;441;51.192;6.788;2023-02-23T05:10:31;16.93;;;16.23;;
908;SDS011;441;51.192;6.788;2023-02-23T05:12:58;16.30;;;15.60;;
908;SDS011;441;51.192;6.788;2023-02-23T05:15:26;15.40;;;14.80;;
908;SDS011;441;51.192;6.788;2023-02-23T05:17:53;16.03;;;15.33;;
908;SDS011;441;51.192;6.788;2023-02-23T05:20:21;15.07;;;14.47;;
908;SDS011;441;51.192;6.788;2023-02-23T05:22:48;15.73;;;15.07;;
908;SDS011;441;51.192;6.788;2023-02-23T05:25:16;16.30;;;15.60;;
908;SDS011;441;51.192;6.788;2023-02-23T05:27:43;16.73;;;15.93;;
908;SDS011;441;51.192;6.788;2023-02-23T05:30:10;14.40;;;13.80;;
908;SDS011;441;51.192;6.788;2023-02-23T05:32:37;15.70;;;14.83;;
908;SDS011;441;51.192;6.788;2023-02-23T05:35:04;14.63;;;13.87;;
908;SDS011;441;51.192;6.788;2023-02-23T05:37:31;14.73;;;13.93;;
908;SDS011;441;51.192;6.788;2023-02-23T05:39:58;14.80;;;14.00;;
908;SDS011;441;51.192;6.788;2023-02-23T05:42:27;15.30;;;14.70;;
908;SDS011;441;51.192;6.788;2023-02-23T05:44:54;14.63;;;14.00;;
908;SDS011;441;51.192;6.788;2023-02-23T05:47:21;14.57;;;13.87;;
908;SDS011;441;51.192;6.788;2023-02-23T05:49:48;14.40;;;13.60;;
908;SDS011;441;51.192;6.788;2023-02-23T05:52:15;15.23;;;14.50;;
908;SDS011;441;51.192;6.788;2023-02-23T05:54:42;14.93;;;14.33;;
908;SDS011;441;51.192;6.788;2023-02-23T05:57:10;14.20;;;13.50;;
908;SDS011;441;51.192;6.788;2023-02-23T05:59:38;15.40;;;14.60;;
908;SDS011;441;51.192;6.788;2023-02-23T06:02:05;14.73;;;14.10;;
908;SDS011;441;51.192;6.788;2023-02-23T06:04:32;13.30;;;12.80;;
908;SDS011;441;51.192;6.788;2023-02-23T06:06:59;13.67;;;13.07;;
908;SDS011;441;51.192;6.788;2023-02-23T06:09:26;13.53;;;13.03;;
908;SDS011;441;51.192;6.788;2023-02-23T06:11:53;14.57;;;13.97;;
908;SDS011;441;51.192;6.788;2023-02-23T06:14:20;14.10;;;13.07;;
908;SDS011;441;51.192;6.788;2023-02-23T06:16:48;14.50;;;13.90;;
908;SDS011;441;51.192;6.788;2023-02-23T06:19:15;14.83;;;14.13;;
908;SDS011;441;51.192;6.788;2023-02-23T06:21:41;13.93;;;13.30;;
908;SDS011;441;51.192;6.788;2023-02-23T06:24:08;14.50;;;13.70;;
908;SDS011;441;51.192;6.788;2023-02-23T06:26:36;14.10;;;13.50;;
908;SDS011;441;51.192;6.788;2023-02-23T06:29:03;14.97;;;14.33;;
908;SDS011;441;51.192;6.788;2023-02-23T06:31:29;14.23;;;13.70;;
908;SDS011;441;51.192;6.788;2023-02-23T06:33:58;13.77;;;13.20;;
908;SDS011;441;51.192;6.788;2023-02-23T06:36:24;15.37;;;14.67;;
908;SDS011;441;51.192;6.788;2023-02-23T06:38:54;15.40;;;14.47;;
908;SDS011;441;51.192;6.788;2023-02-23T06:41:21;14.60;;;14.00;;
908;SDS011;441;51.192;6.788;2023-02-23T06:43:49;14.10;;;13.40;;
908;SDS011;441;51.192;6.788;2023-02-23T06:46:16;15.60;;;14.60;;
908;SDS011;441;51.192;6.788;2023-02-23T06:48:43;14.60;;;13.70;;
908;SDS011;441;51.192;6.788;2023-02-23T06:51:11;14.20;;;13.40;;
908;SDS011;441;51.192;6.788;2023-02-23T06:53:38;14.57;;;13.90;;
908;SDS011;441;51.192;6.788;2023-02-23T06:56:05;12.90;;;12.27;;
908;SDS011;441;51.192;6.788;2023-02-23T06:58:32;15.23;;;13.97;;
908;SDS011;441;51.192;6.788;2023-02-23T07:00:59;15.17;;;14.17;;
908;SDS011;441;51.192;6.788;2023-02-23T07:03:25;14.80;;;13.80;;
908;SDS011;441;51.192;6.788;2023-02-23T07:05:52;14.67;;;13.97;;
908;SDS011;441;51.192;6.788;2023-02-23T07:08:20;14.40;;;13.30;;
908;SDS011;441;51.192;6.788;2023-02-23T07:10:47;16.33;;;15.23;;
908;SDS011;441;51.192;6.788;2023-02-23T07:13:14;15.17;;;14.27;;
908;SDS011;441;51.192;6.788;2023-02-23T07:15:41;15.93;;;14.97;;
908;SDS011;441;51.192;6.788;2023-02-23T07:18:08;14.67;;;13.87;;
908;SDS011;441;51.192;6.788;2023-02-23T07:20:35;16.10;;;14.90;;
908;SDS011;441;51.192;6.788;2023-02-23T07:23:02;13.67;;;12.57;;
908;SDS011;441;51.192;6.788;2023-02-23T07:25:30;14.37;;;13.67;;
908;SDS011;441;51.192;6.788;2023-02-23T07:27:57;14.93;;;13.90;;
908;SDS011;441;51.192;6.788;2023-02-23T07:30:24;14.20;;;13.40;;
908;SDS011;441;51.192;6.788;2023-02-23T07:32:51;15.80;;;14.70;;
908;SDS011;441;51.192;6.788;2023-02-23T07:35:18;14.90;;;14.10;;
908;SDS011;441;51.192;6.788;2023-02-23T07:37:46;15.53;;;14.73;;
908;SDS011;441;51.192;6.788;2023-02-23T07:40:14;15.47;;;14.60;;
908;SDS011;441;51.192;6.788;2023-02-23T07:42:43;15.10;;;14.23;;
908;SDS011;441;51.192;6.788;2023-02-23T07:45:10;15.47;;;14.43;;
908;SDS011;441;51.192;6.788;2023-02-23T07:47:37;14.70;;;13.80;;
908;SDS011;441;51.192;6.788;2023-02-23T07:50:05;14.90;;;14.20;;
908;SDS011;441;51.192;6.788;2023-02-23T07:52:33;14.80;;;13.60;;
908;SDS011;441;51.192;6.788;2023-02-23T07:55:00;15.67;;;14.87;;
908;SDS011;441;51.192;6.788;2023-02-23T07:57:27;15.40;;;14.60;;
908;SDS011;441;51.192;6.788;2023-02-23T07:59:55;14.70;;;13.70;;
908;SDS011;441;51.192;6.788;2023-02-23T08:02:22;14.23;;;13.53;;
908;SDS011;441;51.192;6.788;2023-02-23T08:04:49;15.27;;;14.17;;
908;SDS011;441;51.192;6.788;2023-02-23T08:07:18;14.83;;;14.13;;
908;SDS011;441;51.192;6.788;2023-02-23T08:09:45;13.97;;;13.37;;
908;SDS011;441;51.192;6.788;2023-02-23T08:12:13;14.43;;;13.80;;
908;SDS011;441;51.192;6.788;2023-02-23T08:14:40;14.00;;;13.30;;
908;SDS011;441;51.192;6.788;2023-02-23T08:17:09;15.13;;;14.23;;
908;SDS011;441;51.192;6.788;2023-02-23T08:19:35;14.47;;;13.77;;
908;SDS011;441;51.192;6.788;2023-02-23T08:22:02;14.30;;;13.63;;
908;SDS011;441;51.192;6.788;2023-02-23T08:24:29;14.00;;;13.40;;
908;SDS011;441;51.192;6.788;2023-02-23T08:26:56;15.03;;;14.33;;
908;SDS011;441;51.192;6.788;2023-02-23T08:29:23;15.13;;;14.50;;
908;SDS011;441;51.192;6.788;2023-02-23T08:31:50;14.67;;;13.90;;
908;SDS011;441;51.192;6.788;2023-02-23T08:34:19;14.47;;;13.50;;
908;SDS011;441;51.192;6.788;2023-02-23T08:36:46;13.90;;;13.30;;
908;SDS011;441;51.192;6.788;2023-02-23T08:39:13;13.90;;;13.30;;
908;SDS011;441;51.192;6.788;2023-02-23T08:41:41;13.50;;;12.90;;
908;SDS011;441;51.192;6.788;2023-02-23T08:44:08;14.07;;;13.37;;
908;SDS011;441;51.192;6.788;2023-02-23T08:46:35;15.47;;;14.80;;
908;SDS011;441;51.192;6.788;2023-02-23T08:49:02;14.20;;;13.63;;
908;SDS011;441;51.192;6.788;2023-02-23T08:51:32;14.77;;;14.10;;
908;SDS011;441;51.192;6.788;2023-02-23T08:53:59;15.07;;;14.27;;
908;SDS011;441;51.192;6.788;2023-02-23T08:56:26;13.40;;;12.77;;
908;SDS011;441;51.192;6.788;2023-02-23T08:58:53;13.90;;;13.40;;
908;SDS011;441;51.192;6.788;2023-02-23T09:01:20;14.70;;;14.10;;
908;SDS011;441;51.192;6.788;2023-02-23T09:03:47;14.63;;;14.00;;
908;SDS011;441;51.192;6.788;2023-02-23T09:06:16;14.27;;;13.60;;
908;SDS011;441;51.192;6.788;2023-02-23T09:08:45;13.87;;;13.27;;
908;SDS011;441;51.192;6.788;2023-02-23T09:11:12;12.60;;;12.00;;
908;SDS011;441;51.192;6.788;2023-02-23T09:13:39;14.60;;;13.87;;
908;SDS011;441;51.192;6.788;2023-02-23T09:16:06;13.50;;;12.80;;
908;SDS011;441;51.192;6.788;2023-02-23T09:18:33;14.50;;;13.80;;
908;SDS011;441;51.192;6.788;2023-02-23T09:21:01;14.37;;;13.70;;
908;SDS011;441;51.192;6.788;2023-02-23T09:23:31;14.20;;;13.43;;
908;SDS011;441;51.192;6.788;2023-02-23T09:26:02;14.43;;;13.73;;
908;SDS011;441;51.192;6.788;2023-02-23T09:28:29;14.67;;;13.97;;
908;SDS011;441;51.192;6.788;2023-02-23T09:30:58;13.43;;;12.83;;
908;SDS011;441;51.192;6.788;2023-02-23T09:33:31;13.60;;;13.10;;
908;SDS011;441;51.192;6.788;2023-02-23T09:35:57;13.00;;;12.60;;
908;SDS011;441;51.192;6.788;2023-02-23T09:38:24;14.07;;;13.43;;
908;SDS011;441;51.192;6.788;2023-02-23T09:40:52;14.13;;;13.43;;
908;SDS011;441;51.192;6.788;2023-02-23T09:43:21;15.20;;;14.37;;
908;SDS011;441;51.192;6.788;2023-02-23T09:45:54;14.23;;;13.53;;
908;SDS011;441;51.192;6.788;2023-02-23T09:48:26;15.03;;;14.23;;
908;SDS011;441;51.192;6.788;2023-02-23T09:50:55;14.93;;;14.10;;
908;SDS011;441;51.192;6.788;2023-02-23T09:53:30;15.63;;;14.93;;
908;SDS011;441;51.192;6.788;2023-02-23T09:56:02;14.33;;;13.60;;
908;SDS011;441;51.192;6.788;2023-02-23T09:58:33;15.37;;;14.70;;
908;SDS011;441;51.192;6.788;2023-02-23T10:04:04;14.97;;;14.27;;
908;SDS011;441;51.192;6.788;2023-02-23T10:06:35;16.00;;;15.10;;
908;SDS011;441;51.192;6.788;2023-02-23T10:09:07;15.00;;;14.30;;
908;SDS011;441;51.192;6.788;2023-02-23T10:11:42;13.60;;;12.80;;
908;SDS011;441;51.192;6.788;2023-02-23T10:14:22;14.87;;;13.93;;
908;SDS011;441;51.192;6.788;2023-02-23T10:17:02;14.43;;;13.77;;
908;SDS011;441;51.192;6.788;2023-02-23T10:19:40;13.67;;;13.17;;
908;SDS011;441;51.192;6.788;2023-02-23T10:22:15;14.67;;;13.97;;
908;SDS011;441;51.192;6.788;2023-02-23T10:24:45;14.17;;;13.53;;
908;SDS011;441;51.192;6.788;2023-02-23T10:27:18;13.20;;;12.80;;
908;SDS011;441;51.192;6.788;2023-02-23T10:29:49;14.00;;;13.40;;
908;SDS011;441;51.192;6.788;2023-02-23T10:32:21;14.90;;;14.30;;
908;SDS011;441;51.192;6.788;2023-02-23T10:34:54;13.10;;;12.50;;
908;SDS011;441;51.192;6.788;2023-02-23T10:37:21;14.00;;;13.40;;
908;SDS011;441;51.192;6.788;2023-02-23T10:39:49;13.60;;;13.00;;
908;SDS011;441;51.192;6.788;2023-02-23T10:42:19;13.53;;;12.87;;
908;SDS011;441;51.192;6.788;2023-02-23T10:44:49;14.20;;;13.60;;
908;SDS011;441;51.192;6.788;2023-02-23T10:47:16;14.13;;;13.33;;
908;SDS011;441;51.192;6.788;2023-02-23T10:49:46;15.77;;;14.83;;
908;SDS011;441;51.192;6.788;2023-02-23T10:52:17;15.17;;;14.40;;
908;SDS011;441;51.192;6.788;2023-02-23T10:54:47;14.63;;;13.87;;
908;SDS011;441;51.192;6.788;2023-02-23T10:57:19;15.50;;;14.60;;
908;SDS011;441;51.192;6.788;2023-02-23T10:59:59;14.83;;;14.23;;
908;SDS011;441;51.192;6.788;2023-02-23T11:02:33;14.43;;;13.77;;
908;SDS011;441;51.192;6.788;2023-02-23T11:05:01;13.70;;;12.97;;
908;SDS011;441;51.192;6.788;2023-02-23T11:07:30;14.20;;;13.60;;
908;SDS011;441;51.192;6.788;2023-02-23T11:09:58;14.60;;;13.90;;
908;SDS011;441;51.192;6.788;2023-02-23T11:12:43;14.70;;;14.00;;
908;SDS011;441;51.192;6.788;2023-02-23T11:15:25;14.27;;;13.60;;
908;SDS011;441;51.192;6.788;2023-02-23T11:17:54;14.57;;;13.90;;
908;SDS011;441;51.192;6.788;2023-02-23T11:20:23;13.73;;;12.90;;
908;SDS011;441;51.192;6.788;2023-02-23T11:22:54;13.27;;;12.77;;
908;SDS011;441;51.192;6.788;2023-02-23T11:25:23;13.83;;;13.23;;
908;SDS011;441;51.192;6.788;2023-02-23T11:27:54;14.60;;;14.00;;
908;SDS011;441;51.192;6.788;2023-02-23T11:30:23;14.87;;;14.07;;
908;SDS011;441;51.192;6.788;2023-02-23T11:32:56;14.10;;;13.50;;
908;SDS011;441;51.192;6.788;2023-02-23T11:35:33;13.47;;;12.97;;
908;SDS011;441;51.192;6.788;2023-02-23T11:38:05;12.93;;;12.37;;
908;SDS011;441;51.192;6.788;2023-02-23T11:40:41;14.00;;;13.40;;
908;SDS011;441;51.192;6.788;2023-02-23T11:43:22;13.53;;;12.83;;
908;SDS011;441;51.192;6.788;2023-02-23T11:45:51;13.70;;;13.10;;
908;SDS011;441;51.192;6.788;2023-02-23T11:48:21;14.20;;;13.53;;
908;SDS011;441;51.192;6.788;2023-02-23T11:50:51;13.27;;;12.77;;
908;SDS011;441;51.192;6.788;2023-02-23T11:53:22;13.30;;;12.80;;
908;SDS011;441;51.192;6.788;2023-02-23T11:55:53;15.43;;;14.73;;
908;SDS011;441;51.192;6.788;2023-02-23T11:58:24;14.40;;;13.67;;
908;SDS011;441;51.192;6.788;2023-02-23T12:01:00;14.30;;;13.70;;
908;SDS011;441;51.192;6.788;2023-02-23T12:03:35;13.33;;;12.83;;
908;SDS011;441;51.192;6.788;2023-02-23T12:06:02;14.87;;;14.27;;
908;SDS011;441;51.192;6.788;2023-02-23T12:08:33;14.37;;;13.80;;
908;SDS011;441;51.192;6.788;2023-02-23T12:11:09;14.67;;;13.87;;
908;SDS011;441;51.192;6.788;2023-02-23T12:13:41;13.57;;;13.07;;
908;SDS011;441;51.192;6.788;2023-02-23T12:16:15;14.47;;;13.90;;
908;SDS011;441;51.192;6.788;2023-02-23T12:18:44;14.00;;;13.40;;
908;SDS011;441;51.192;6.788;2023-02-23T12:21:16;14.03;;;13.33;;
908;SDS011;441;51.192;6.788;2023-02-23T12:23:54;13.87;;;13.17;;
908;SDS011;441;51.192;6.788;2023-02-23T12:26:28;13.60;;;13.00;;
908;SDS011;441;51.192;6.788;2023-02-23T12:28:59;13.83;;;13.30;;
908;SDS011;441;51.192;6.788;2023-02-23T12:31:34;14.37;;;13.80;;
908;SDS011;441;51.192;6.788;2023-02-23T12:34:09;14.40;;;13.60;;
908;SDS011;441;51.192;6.788;2023-02-23T12:36:39;13.23;;;12.73;;
908;SDS011;441;51.192;6.788;2023-02-23T12:39:12;13.60;;;13.00;;
908;SDS011;441;51.192;6.788;2023-02-23T12:41:44;13.40;;;12.90;;
908;SDS011;441;51.192;6.788;2023-02-23T12:44:20;14.10;;;13.33;;
908;SDS011;441;51.192;6.788;2023-02-23T12:47:00;13.20;;;12.80;;
908;SDS011;441;51.192;6.788;2023-02-23T12:49:33;13.70;;;13.20;;
908;SDS011;441;51.192;6.788;2023-02-23T12:52:05;12.30;;;11.90;;
908;SDS011;441;51.192;6.788;2023-02-23T12:54:38;13.67;;;13.17;;
908;SDS011;441;51.192;6.788;2023-02-23T12:57:08;13.47;;;12.97;;
908;SDS011;441;51.192;6.788;2023-02-23T13:00:14;13.30;;;12.80;;
908;SDS011;441;51.192;6.788;2023-02-23T13:03:15;13.33;;;12.63;;
908;SDS011;441;51.192;6.788;2023-02-23T13:05:56;13.30;;;12.90;;
908;SDS011;441;51.192;6.788;2023-02-23T13:08:32;13.00;;;12.50;;
908;SDS011;441;51.192;6.788;2023-02-23T13:11:11;13.83;;;13.33;;
908;SDS011;441;51.192;6.788;2023-02-23T13:13:48;13.63;;;13.13;;
908;SDS011;441;51.192;6.788;2023-02-23T13:16:22;13.80;;;13.20;;
908;SDS011;441;51.192;6.788;2023-02-23T13:18:58;13.93;;;13.37;;
908;SDS011;441;51.192;6.788;2023-02-23T13:21:33;12.93;;;12.43;;
908;SDS011;441;51.192;6.788;2023-02-23T13:24:05;12.90;;;12.40;;
908;SDS011;441;51.192;6.788;2023-02-23T13:26:37;12.77;;;12.30;;
908;SDS011;441;51.192;6.788;2023-02-23T13:29:11;13.37;;;12.77;;
908;SDS011;441;51.192;6.788;2023-02-23T13:31:46;13.83;;;13.13;;
908;SDS011;441;51.192;6.788;2023-02-23T13:34:15;12.87;;;12.37;;
908;SDS011;441;51.192;6.788;2023-02-23T13:36:51;13.33;;;12.93;;
908;SDS011;441;51.192;6.788;2023-02-23T13:39:24;12.57;;;12.10;;
908;SDS011;441;51.192;6.788;2023-02-23T13:42:07;12.27;;;11.77;;
908;SDS011;441;51.192;6.788;2023-02-23T13:44:45;12.40;;;11.93;;
908;SDS011;441;51.192;6.788;2023-02-23T13:47:19;13.87;;;13.37;;
908;SDS011;441;51.192;6.788;2023-02-23T13:50:00;12.07;;;11.67;;
908;SDS011;441;51.192;6.788;2023-02-23T13:52:35;12.47;;;11.97;;
908;SDS011;441;51.192;6.788;2023-02-23T13:55:13;12.50;;;12.10;;
908;SDS011;441;51.192;6.788;2023-02-23T13:58:16;13.13;;;12.53;;
908;SDS011;441;51.192;6.788;2023-02-23T14:00:49;12.50;;;12.10;;
908;SDS011;441;51.192;6.788;2023-02-23T14:03:21;12.10;;;11.70;;
908;SDS011;441;51.192;6.788;2023-02-23T14:05:53;12.23;;;11.83;;
908;SDS011;441;51.192;6.788;2023-02-23T14:08:27;13.37;;;12.87;;
908;SDS011;441;51.192;6.788;2023-02-23T14:10:58;12.00;;;11.50;;
908;SDS011;441;51.192;6.788;2023-02-23T14:13:27;11.67;;;11.27;;
908;SDS011;441;51.192;6.788;2023-02-23T14:16:07;12.43;;;11.83;;
908;SDS011;441;51.192;6.788;2023-02-23T14:21:42;12.73;;;12.33;;
908;SDS011;441;51.192;6.788;2023-02-23T14:24:18;14.20;;;13.70;;
908;SDS011;441;51.192;6.788;2023-02-23T14:30:11;14.00;;;13.30;;
908;SDS011;441;51.192;6.788;2023-02-23T14:32:42;13.10;;;12.50;;
908;SDS011;441;51.192;6.788;2023-02-23T14:40:58;14.00;;;13.50;;
908;SDS011;441;51.192;6.788;2023-02-23T14:43:31;13.07;;;12.67;;
908;SDS011;441;51.192;6.788;2023-02-23T14:46:07;12.83;;;12.43;;
908;SDS011;441;51.192;6.788;2023-02-23T14:48:36;14.20;;;13.63;;
908;SDS011;441;51.192;6.788;2023-02-23T14:51:10;13.97;;;13.27;;
908;SDS011;441;51.192;6.788;2023-02-23T14:53:42;13.63;;;13.10;;
908;SDS011;441;51.192;6.788;2023-02-23T14:56:18;13.40;;;12.93;;
908;SDS011;441;51.192;6.788;2023-02-23T14:58:50;14.40;;;13.90;;
908;SDS011;441;51.192;6.788;2023-02-23T15:01:33;13.23;;;12.83;;
908;SDS011;441;51.192;6.788;2023-02-23T15:04:09;13.90;;;13.40;;
908;SDS011;441;51.192;6.788;2023-02-23T15:06:37;13.70;;;13.20;;
908;SDS011;441;51.192;6.788;2023-02-23T15:09:07;12.97;;;12.47;;
908;SDS011;441;51.192;6.788;2023-02-23T15:11:46;15.17;;;14.67;;
908;SDS011;441;51.192;6.788;2023-02-23T15:14:18;15.10;;;14.60;;
908;SDS011;441;51.192;6.788;2023-02-23T15:16:45;15.43;;;14.77;;
908;SDS011;441;51.192;6.788;2023-02-23T15:19:15;16.50;;;15.77;;
908;SDS011;441;51.192;6.788;2023-02-23T15:21:47;15.30;;;14.70;;
908;SDS011;441;51.192;6.788;2023-02-23T15:24:22;13.90;;;13.40;;
908;SDS011;441;51.192;6.788;2023-02-23T15:26:51;14.63;;;14.10;;
908;SDS011;441;51.192;6.788;2023-02-23T15:29:19;13.90;;;13.40;;
908;SDS011;441;51.192;6.788;2023-02-23T15:31:48;14.77;;;14.27;;
908;SDS011;441;51.192;6.788;2023-02-23T15:34:18;15.77;;;15.10;;
908;SDS011;441;51.192;6.788;2023-02-23T15:36:47;14.43;;;13.77;;
908;SDS011;441;51.192;6.788;2023-02-23T15:39:18;14.10;;;13.50;;
908;SDS011;441;51.192;6.788;2023-02-23T15:41:54;13.83;;;13.23;;
908;SDS011;441;51.192;6.788;2023-02-23T15:44:21;13.70;;;13.20;;
908;SDS011;441;51.192;6.788;2023-02-23T15:46:51;13.13;;;12.73;;
908;SDS011;441;51.192;6.788;2023-02-23T15:49:21;14.70;;;14.10;;
908;SDS011;441;51.192;6.788;2023-02-23T15:51:56;14.23;;;13.73;;
908;SDS011;441;51.192;6.788;2023-02-23T15:54:28;14.00;;;13.60;;
908;SDS011;441;51.192;6.788;2023-02-23T15:56:57;14.37;;;13.77;;
908;SDS011;441;51.192;6.788;2023-02-23T15:59:32;13.73;;;13.20;;
908;SDS011;441;51.192;6.788;2023-02-23T16:02:02;13.77;;;13.37;;
908;SDS011;441;51.192;6.788;2023-02-23T16:04:39;14.00;;;13.60;;
908;SDS011;441;51.192;6.788;2023-02-23T16:07:17;14.73;;;14.23;;
908;SDS011;441;51.192;6.788;2023-02-23T16:09:48;13.43;;;12.93;;
908;SDS011;441;51.192;6.788;2023-02-23T16:12:18;14.00;;;13.40;;
908;SDS011;441;51.192;6.788;2023-02-23T16:14:48;14.97;;;14.37;;
908;SDS011;441;51.192;6.788;2023-02-23T16:17:26;13.43;;;12.93;;